Johnny James — WYT8450 — position and weather

sailwx.info

Track history (hours):
 
Tides and Currents Weather Stations Pressure Air Temp Water Temp Dewpoint Dewpoint Depression Visibility Wind Speed Wind Dir Waves Ship Positions

Johnny James

Owner: CALLAIS & SONS INC, CUT OFF, LA. More information available from US FCC via Universal Licensing System and Coast Guard Vessel Documentation Center.

Last reported at 2015-May-29 01:34 UTC. Time now 2015-May-29 02:13 UTC.
Position N 29°36' W 094°56'.

Length 20 m.

Type: Towing. MMSI: 367005220.

Date/timePositionNaut miles runAvg speedWind from/ knotsBaromVisibWave heightAir tempDewpointWater temp
2015-May-29 01:34N 29°36' W 094°56'6 5.9
2015-May-29 00:33N 29°31' W 094°53'6 5.8
2015-May-28 23:33N 29°25' W 094°50'  
2015-May-25 23:06N 29°23' W 094°51'10 0.2
2015-May-24 00:32N 29°32' W 094°54'6 6.1
2015-May-23 23:33N 29°37' W 094°57'6 5.9
2015-May-23 22:33N 29°42' W 095°01'5 4.8
2015-May-23 21:33N 29°46' W 095°05'1 1.3
2015-May-23 20:33N 29°45' W 095°06'0 0.0
2015-May-23 19:33N 29°45' W 095°06'0 0.0
2015-May-23 18:33N 29°45' W 095°06'0 0.0
2015-May-23 17:33N 29°45' W 095°06'0 0.0
2015-May-23 16:33N 29°45' W 095°06'0 0.0
2015-May-23 15:32N 29°45' W 095°06'0 0.0
2015-May-23 14:33N 29°45' W 095°06'0 0.0
2015-May-23 13:33N 29°45' W 095°06'0 0.0
2015-May-23 12:33N 29°45' W 095°06'0 0.0
2015-May-23 11:33N 29°45' W 095°06'0 0.0
2015-May-23 10:33N 29°45' W 095°06'0 0.0
2015-May-23 09:34N 29°45' W 095°06'0 0.0
2015-May-23 08:34N 29°45' W 095°06'0 0.0
2015-May-23 07:32N 29°45' W 095°06'0 0.0
2015-May-23 06:33N 29°45' W 095°06'0 0.0
2015-May-23 05:33N 29°45' W 095°06'0 0.0
2015-May-23 04:33N 29°45' W 095°06'0 0.0
2015-May-23 03:33N 29°45' W 095°06'0 0.0
2015-May-23 02:31N 29°45' W 095°06'0 0.0
2015-May-23 01:33N 29°45' W 095°06'0 0.0
2015-May-23 00:32N 29°45' W 095°06'1 0.6
2015-May-22 23:33N 29°45' W 095°06'0 0.1
2015-May-22 22:34N 29°45' W 095°06'0 0.0
2015-May-22 21:34N 29°45' W 095°06'0 0.0
2015-May-22 20:31N 29°45' W 095°06'0 0.0
2015-May-22 19:33N 29°45' W 095°06'0 0.0
2015-May-22 18:34N 29°45' W 095°06'0 0.0
2015-May-22 17:34N 29°45' W 095°06'0 0.0
2015-May-22 16:33N 29°45' W 095°06'0 0.0
2015-May-22 15:34N 29°45' W 095°06'0 0.0
2015-May-22 14:33N 29°45' W 095°06'0 0.0
2015-May-22 13:33N 29°45' W 095°06'0 0.0
2015-May-22 12:33N 29°45' W 095°06'0 0.0
2015-May-22 11:33N 29°45' W 095°06'0 0.0
2015-May-22 10:33N 29°45' W 095°06'0 0.0
2015-May-22 09:33N 29°45' W 095°06'0 0.0
2015-May-22 08:33N 29°45' W 095°06'0 0.0
2015-May-22 07:33N 29°45' W 095°06'0 0.0
2015-May-22 06:34N 29°45' W 095°06'0 0.0
2015-May-22 05:33N 29°45' W 095°06'0 0.0
2015-May-22 04:33N 29°45' W 095°06'0 0.1
2015-May-22 03:34N 29°46' W 095°06'1 1.1
2015-May-22 02:32N 29°46' W 095°05'0 0.0
2015-May-22 01:33N 29°46' W 095°05'0 0.0
2015-May-22 00:33N 29°46' W 095°05'1 0.9
2015-May-21 23:33N 29°47' W 095°04'0 0.1
2015-May-21 22:34N 29°47' W 095°04'0 0.0
2015-May-21 21:34N 29°47' W 095°04'2 1.6
2015-May-21 20:33N 29°46' W 095°05'4 3.6
2015-May-21 19:33N 29°44' W 095°09'4 3.5
2015-May-21 18:33N 29°43' W 095°13'1 0.7
2015-May-21 17:34N 29°44' W 095°14'0 0.0
2015-May-21 16:33N 29°44' W 095°14'0 0.1
2015-May-21 15:33N 29°44' W 095°14'4 4.2
2015-May-21 14:33N 29°44' W 095°09'5 5.1
2015-May-21 13:33N 29°47' W 095°04'0 0.2
2015-May-21 12:33N 29°47' W 095°04'0 0.0
2015-May-21 11:33N 29°47' W 095°04'0 0.0
2015-May-21 10:33N 29°47' W 095°04'0 0.0
2015-May-21 09:33N 29°47' W 095°04'0 0.0
2015-May-21 08:33N 29°47' W 095°04'0 0.3
2015-May-21 07:17N 29°47' W 095°04'0 0.0
2015-May-21 06:32N 29°47' W 095°04'1 0.7
2015-May-21 05:32N 29°47' W 095°05'1 1.2
2015-May-21 04:33N 29°46' W 095°06'1 0.9
2015-May-21 03:32N 29°45' W 095°06'7 6.7
2015-May-21 02:33N 29°44' W 095°13'2 2.1
2015-May-21 01:34N 29°44' W 095°16'0 0.0
2015-May-21 00:33N 29°44' W 095°16'4 3.8
2015-May-20 23:33N 29°45' W 095°12'6 5.5
2015-May-20 22:33N 29°46' W 095°05'1 1.0
2015-May-20 21:33N 29°46' W 095°05'0 0.5
2015-May-20 20:33N 29°47' W 095°04'1 0.6
2015-May-20 19:17N 29°48' W 095°04'0 0.0
2015-May-20 18:33N 29°48' W 095°04'0 0.0
2015-May-20 17:18N 29°48' W 095°04'0 0.0
2015-May-20 13:07N 29°48' W 095°04'0 0.0
2015-May-20 12:30N 29°48' W 095°04'0 0.0
2015-May-20 11:23N 29°48' W 095°04'0 0.0
2015-May-20 10:31N 29°48' W 095°04'0 0.0
2015-May-20 09:25N 29°48' W 095°04'0 0.0
2015-May-20 06:17N 29°48' W 095°04'0 0.0
2015-May-19 20:07N 29°48' W 095°04'0 0.0
2015-May-19 19:10N 29°48' W 095°04'0 0.0
2015-May-19 18:33N 29°48' W 095°04'0 0.0
2015-May-19 15:16N 29°48' W 095°04'2 3.5
2015-May-19 14:33N 29°46' W 095°06'1 0.7
2015-May-19 13:33N 29°46' W 095°05'1 1.5
2015-May-19 12:33N 29°45' W 095°06'0 0.0
2015-May-19 11:33N 29°45' W 095°06'0 0.0
2015-May-19 10:32N 29°45' W 095°06'0 0.0
2015-May-19 09:33N 29°45' W 095°06'0 0.0
2015-May-19 08:33N 29°45' W 095°06'0 0.0
2015-May-19 07:33N 29°45' W 095°06'0 0.0
2015-May-19 06:33N 29°45' W 095°06'0 0.0
2015-May-19 05:33N 29°45' W 095°06'0 0.0
2015-May-19 04:33N 29°45' W 095°06'0 0.0
2015-May-19 03:33N 29°45' W 095°06'0 0.0
2015-May-19 02:33N 29°45' W 095°06'  
Track history (hours):
 
Tides and Currents Weather Stations Pressure Air Temp Water Temp Dewpoint Dewpoint Depression Visibility Wind Speed Wind Dir Waves Ship Positions

Johnny James

Owner: CALLAIS & SONS INC, CUT OFF, LA. More information available from US FCC via Universal Licensing System and Coast Guard Vessel Documentation Center.

Last reported at 2015-May-29 01:34 UTC. Time now 2015-May-29 02:13 UTC.
Position N 29°36' W 094°56'.

Length 20 m.

Type: Towing. MMSI: 367005220.

Date/timePositionNaut miles runAvg speedWind from/ knotsBaromVisibWave heightAir tempDewpointWater temp
2015-May-29 01:34N 29°36' W 094°56'6 5.9
2015-May-29 00:33N 29°31' W 094°53'6 5.8
2015-May-28 23:33N 29°25' W 094°50'  
2015-May-25 23:06N 29°23' W 094°51'10 0.2
2015-May-24 00:32N 29°32' W 094°54'6 6.1
2015-May-23 23:33N 29°37' W 094°57'6 5.9
2015-May-23 22:33N 29°42' W 095°01'5 4.8
2015-May-23 21:33N 29°46' W 095°05'1 1.3
2015-May-23 20:33N 29°45' W 095°06'0 0.0
2015-May-23 19:33N 29°45' W 095°06'0 0.0
2015-May-23 18:33N 29°45' W 095°06'0 0.0
2015-May-23 17:33N 29°45' W 095°06'0 0.0
2015-May-23 16:33N 29°45' W 095°06'0 0.0
2015-May-23 15:32N 29°45' W 095°06'0 0.0
2015-May-23 14:33N 29°45' W 095°06'0 0.0
2015-May-23 13:33N 29°45' W 095°06'0 0.0
2015-May-23 12:33N 29°45' W 095°06'0 0.0
2015-May-23 11:33N 29°45' W 095°06'0 0.0
2015-May-23 10:33N 29°45' W 095°06'0 0.0
2015-May-23 09:34N 29°45' W 095°06'0 0.0
2015-May-23 08:34N 29°45' W 095°06'0 0.0
2015-May-23 07:32N 29°45' W 095°06'0 0.0
2015-May-23 06:33N 29°45' W 095°06'0 0.0
2015-May-23 05:33N 29°45' W 095°06'0 0.0
2015-May-23 04:33N 29°45' W 095°06'0 0.0
2015-May-23 03:33N 29°45' W 095°06'0 0.0
2015-May-23 02:31N 29°45' W 095°06'0 0.0
2015-May-23 01:33N 29°45' W 095°06'0 0.0
2015-May-23 00:32N 29°45' W 095°06'1 0.6
2015-May-22 23:33N 29°45' W 095°06'0 0.1
2015-May-22 22:34N 29°45' W 095°06'0 0.0
2015-May-22 21:34N 29°45' W 095°06'0 0.0
2015-May-22 20:31N 29°45' W 095°06'0 0.0
2015-May-22 19:33N 29°45' W 095°06'0 0.0
2015-May-22 18:34N 29°45' W 095°06'0 0.0
2015-May-22 17:34N 29°45' W 095°06'0 0.0
2015-May-22 16:33N 29°45' W 095°06'0 0.0
2015-May-22 15:34N 29°45' W 095°06'0 0.0
2015-May-22 14:33N 29°45' W 095°06'0 0.0
2015-May-22 13:33N 29°45' W 095°06'0 0.0
2015-May-22 12:33N 29°45' W 095°06'0 0.0
2015-May-22 11:33N 29°45' W 095°06'0 0.0
2015-May-22 10:33N 29°45' W 095°06'0 0.0
2015-May-22 09:33N 29°45' W 095°06'0 0.0
2015-May-22 08:33N 29°45' W 095°06'0 0.0
2015-May-22 07:33N 29°45' W 095°06'0 0.0
2015-May-22 06:34N 29°45' W 095°06'0 0.0
2015-May-22 05:33N 29°45' W 095°06'0 0.0
2015-May-22 04:33N 29°45' W 095°06'0 0.1
2015-May-22 03:34N 29°46' W 095°06'1 1.1
2015-May-22 02:32N 29°46' W 095°05'0 0.0
2015-May-22 01:33N 29°46' W 095°05'0 0.0
2015-May-22 00:33N 29°46' W 095°05'1 0.9
2015-May-21 23:33N 29°47' W 095°04'0 0.1
2015-May-21 22:34N 29°47' W 095°04'0 0.0
2015-May-21 21:34N 29°47' W 095°04'2 1.6
2015-May-21 20:33N 29°46' W 095°05'4 3.6
2015-May-21 19:33N 29°44' W 095°09'4 3.5
2015-May-21 18:33N 29°43' W 095°13'1 0.7
2015-May-21 17:34N 29°44' W 095°14'0 0.0
2015-May-21 16:33N 29°44' W 095°14'0 0.1
2015-May-21 15:33N 29°44' W 095°14'4 4.2
2015-May-21 14:33N 29°44' W 095°09'5 5.1
2015-May-21 13:33N 29°47' W 095°04'0 0.2
2015-May-21 12:33N 29°47' W 095°04'0 0.0
2015-May-21 11:33N 29°47' W 095°04'0 0.0
2015-May-21 10:33N 29°47' W 095°04'0 0.0
2015-May-21 09:33N 29°47' W 095°04'0 0.0
2015-May-21 08:33N 29°47' W 095°04'0 0.3
2015-May-21 07:17N 29°47' W 095°04'0 0.0
2015-May-21 06:32N 29°47' W 095°04'1 0.7
2015-May-21 05:32N 29°47' W 095°05'1 1.2
2015-May-21 04:33N 29°46' W 095°06'1 0.9
2015-May-21 03:32N 29°45' W 095°06'7 6.7
2015-May-21 02:33N 29°44' W 095°13'2 2.1
2015-May-21 01:34N 29°44' W 095°16'0 0.0
2015-May-21 00:33N 29°44' W 095°16'4 3.8
2015-May-20 23:33N 29°45' W 095°12'6 5.5
2015-May-20 22:33N 29°46' W 095°05'1 1.0
2015-May-20 21:33N 29°46' W 095°05'0 0.5
2015-May-20 20:33N 29°47' W 095°04'1 0.6
2015-May-20 19:17N 29°48' W 095°04'0 0.0
2015-May-20 18:33N 29°48' W 095°04'0 0.0
2015-May-20 17:18N 29°48' W 095°04'0 0.0
2015-May-20 13:07N 29°48' W 095°04'0 0.0
2015-May-20 12:30N 29°48' W 095°04'0 0.0
2015-May-20 11:23N 29°48' W 095°04'0 0.0
2015-May-20 10:31N 29°48' W 095°04'0 0.0
2015-May-20 09:25N 29°48' W 095°04'0 0.0
2015-May-20 06:17N 29°48' W 095°04'0 0.0
2015-May-19 20:07N 29°48' W 095°04'0 0.0
2015-May-19 19:10N 29°48' W 095°04'0 0.0
2015-May-19 18:33N 29°48' W 095°04'0 0.0
2015-May-19 15:16N 29°48' W 095°04'2 3.5
2015-May-19 14:33N 29°46' W 095°06'1 0.7
2015-May-19 13:33N 29°46' W 095°05'1 1.5
2015-May-19 12:33N 29°45' W 095°06'0 0.0
2015-May-19 11:33N 29°45' W 095°06'0 0.0
2015-May-19 10:32N 29°45' W 095°06'0 0.0
2015-May-19 09:33N 29°45' W 095°06'0 0.0
2015-May-19 08:33N 29°45' W 095°06'0 0.0
2015-May-19 07:33N 29°45' W 095°06'0 0.0
2015-May-19 06:33N 29°45' W 095°06'0 0.0
2015-May-19 05:33N 29°45' W 095°06'0 0.0
2015-May-19 04:33N 29°45' W 095°06'0 0.0
2015-May-19 03:33N 29°45' W 095°06'0 0.0
2015-May-19 02:33N 29°45' W 095°06'  

Dump ship's entire track history